createdAt,value
2022-11-21T00:03:39.240Z,99042.50
2022-11-21T00:08:43.063Z,99040.86
2022-11-21T00:13:46.477Z,99034.70
2022-11-21T00:18:49.892Z,99031.77
2022-11-21T00:23:53.508Z,99023.55
2022-11-21T00:28:56.818Z,99022.42
2022-11-21T00:34:02.796Z,99028.55
2022-11-21T00:39:06.204Z,99028.61
2022-11-21T00:44:09.720Z,99029.65
2022-11-21T00:49:13.133Z,99038.84
2022-11-21T00:54:16.653Z,99037.90
2022-11-21T00:59:20.062Z,99037.01
2022-11-21T01:04:23.582Z,99038.69
2022-11-21T01:09:28.869Z,99043.45
2022-11-21T01:14:32.349Z,99035.02
2022-11-21T01:19:35.766Z,99044.27
2022-11-21T01:24:39.280Z,99043.75
2022-11-21T01:29:42.896Z,99050.44
2022-11-21T01:34:46.207Z,99053.78
2022-11-21T01:39:49.722Z,99063.56
2022-11-21T01:44:54.780Z,99065.55
2022-11-21T01:49:58.493Z,99052.65
2022-11-21T01:55:06.618Z,99048.38
2022-11-21T02:00:17.011Z,99048.66
2022-11-21T02:05:24.607Z,99042.80
2022-11-21T02:10:28.634Z,99032.56
2022-11-21T02:15:32.562Z,99027.82
2022-11-21T02:20:38.122Z,99034.02
2022-11-21T02:25:43.287Z,99037.25
2022-11-21T02:30:47.102Z,99048.67
2022-11-21T02:36:01.984Z,99054.16
2022-11-21T02:41:15.225Z,99044.20
2022-11-21T02:46:18.536Z,99048.33
2022-11-21T02:51:22.050Z,99041.01
2022-11-21T02:56:25.566Z,99040.05
2022-11-21T03:01:29.524Z,99039.23
2022-11-21T03:06:33.008Z,99047.10
2022-11-21T03:11:36.522Z,99051.42
2022-11-21T03:16:40.201Z,99050.56
2022-11-21T03:21:43.553Z,99049.18
2022-11-21T03:26:47.069Z,99048.73
2022-11-21T03:31:50.480Z,99049.69
2022-11-21T03:36:54.100Z,99058.08
2022-11-21T03:41:57.718Z,99072.48
2022-11-21T03:47:01.028Z,99072.30
2022-11-21T03:52:04.780Z,99068.17
2022-11-21T03:57:08.163Z,99065.67
2022-11-21T04:02:11.577Z,99067.92
2022-11-21T04:07:15.484Z,99063.78
2022-11-21T04:12:18.914Z,99063.05
2022-11-21T04:17:22.429Z,99055.48
2022-11-21T04:22:25.842Z,99058.11
2022-11-21T04:27:29.259Z,99054.94
2022-11-21T04:32:32.771Z,99051.09
2022-11-21T04:37:39.256Z,99055.34
2022-11-21T04:42:43.630Z,99054.11
2022-11-21T04:47:47.107Z,99051.35
2022-11-21T04:52:55.995Z,99054.20
2022-11-21T04:58:00.630Z,99062.98
2022-11-21T05:03:05.644Z,99066.02
2022-11-21T05:08:08.955Z,99062.79
2022-11-21T05:13:21.328Z,99061.69
2022-11-21T05:18:25.505Z,99056.29
2022-11-21T05:23:28.919Z,99063.02
2022-11-21T05:28:32.228Z,99061.39
2022-11-21T05:33:35.744Z,99064.02
2022-11-21T05:38:39.157Z,99056.30
2022-11-21T05:43:49.227Z,99049.74
2022-11-21T05:48:54.588Z,99040.15
2022-11-21T05:53:58.102Z,99044.66
2022-11-21T05:59:01.617Z,99042.50
2022-11-21T06:04:05.135Z,99035.95
2022-11-21T06:09:08.448Z,99025.06
2022-11-21T06:14:11.757Z,99027.75
2022-11-21T06:19:15.169Z,99026.61
2022-11-21T06:24:26.978Z,99028.48
2022-11-21T06:29:30.596Z,99028.27
2022-11-21T06:34:34.112Z,99022.35
2022-11-21T06:39:37.421Z,99017.79
2022-11-21T06:44:40.834Z,99024.34
2022-11-21T06:49:44.152Z,99033.73
2022-11-21T06:54:47.764Z,99037.23
2022-11-21T06:59:51.074Z,99045.14
2022-11-21T07:04:54.490Z,99054.27
2022-11-21T07:09:57.901Z,99045.34
2022-11-21T07:15:01.416Z,99042.49
2022-11-21T07:20:05.445Z,99051.17
2022-11-21T07:25:09.226Z,99049.88
2022-11-21T07:30:13.501Z,99048.59
2022-11-21T07:35:16.814Z,99047.39
2022-11-21T07:40:20.735Z,99053.70
2022-11-21T07:45:24.048Z,99065.08
2022-11-21T07:50:28.485Z,99068.84
2022-11-21T07:55:36.362Z,99070.93
2022-11-21T08:00:43.301Z,99074.34
2022-11-21T08:05:46.712Z,99067.67
2022-11-21T08:10:51.765Z,99068.02
2022-11-21T08:15:55.176Z,99075.79
2022-11-21T08:21:01.761Z,99079.40
2022-11-21T08:26:05.074Z,99080.67
2022-11-21T08:31:08.588Z,99068.48
2022-11-21T08:36:12.105Z,99066.95
2022-11-21T08:41:34.362Z,99072.08
2022-11-21T08:46:37.876Z,99071.73
2022-11-21T08:51:41.700Z,99072.14
2022-11-21T08:56:45.725Z,99081.80
2022-11-21T09:01:49.358Z,99083.73
2022-11-21T09:06:53.267Z,99082.35
2022-11-21T09:11:56.581Z,99079.44
2022-11-21T09:17:18.629Z,99083.63
2022-11-21T09:22:22.042Z,99080.15
2022-11-21T09:27:25.454Z,99076.79
2022-11-21T09:32:28.867Z,99080.80
2022-11-21T09:37:38.153Z,99064.04
2022-11-21T09:42:44.298Z,99057.99
2022-11-21T09:47:52.918Z,99067.08
2022-11-21T09:52:59.827Z,99067.05
2022-11-21T09:58:05.472Z,99073.25
2022-11-21T10:03:15.599Z,99069.11
2022-11-21T10:08:48.111Z,99061.38
2022-11-21T10:14:15.636Z,99056.05
2022-11-21T10:19:31.234Z,99047.99
2022-11-21T10:24:59.432Z,99047.17
2022-11-21T10:30:06.118Z,99052.80
2022-11-21T10:35:22.984Z,99049.91
2022-11-21T10:40:59.536Z,99036.02
2022-11-21T10:46:02.950Z,99037.70
2022-11-21T10:51:37.593Z,99036.08
2022-11-21T10:56:40.852Z,99034.46
2022-11-21T11:01:56.143Z,99039.16
2022-11-21T11:07:24.454Z,99037.48
2022-11-21T11:12:49.000Z,99034.42
2022-11-21T11:17:59.161Z,99028.96
2022-11-21T11:23:20.309Z,99033.30
2022-11-21T11:28:25.558Z,99024.94
2022-11-21T11:33:50.578Z,99029.55
2022-11-21T11:38:59.316Z,99036.86
2022-11-21T11:44:33.756Z,99036.54
2022-11-21T11:49:59.901Z,99030.45
2022-11-21T11:55:14.987Z,99034.00
2022-11-21T12:00:46.561Z,99028.52
2022-11-21T12:06:09.129Z,99027.46
2022-11-21T12:11:47.557Z,99035.33
2022-11-21T12:16:50.971Z,99035.39
2022-11-21T12:21:54.386Z,99025.86
2022-11-21T12:27:21.861Z,99023.49
2022-11-21T12:32:34.489Z,99016.59
2022-11-21T12:38:22.858Z,99016.31
2022-11-21T12:44:27.505Z,99019.58
2022-11-21T12:50:41.166Z,99015.50
2022-11-21T12:55:44.988Z,99007.69
2022-11-21T13:01:19.705Z,99003.54
2022-11-21T13:06:33.082Z,99004.70
2022-11-21T13:11:58.924Z,99005.38
2022-11-21T13:17:36.844Z,99000.55
2022-11-21T13:22:42.612Z,98999.21
2022-11-21T13:27:46.027Z,98999.25
2022-11-21T13:32:56.022Z,98995.92
2022-11-21T13:38:04.733Z,98993.73
2022-11-21T13:43:36.466Z,98996.49
2022-11-21T13:49:07.678Z,98994.29
2022-11-21T13:54:55.529Z,98991.15
2022-11-21T14:00:38.365Z,98982.31
2022-11-21T14:05:58.369Z,98982.54
2022-11-21T14:11:30.358Z,98983.27
2022-11-21T14:16:51.172Z,98984.65
2022-11-21T14:21:55.815Z,98984.05
2022-11-21T14:26:59.333Z,98983.06
2022-11-21T14:32:02.956Z,98990.20
2022-11-21T14:37:08.000Z,98987.79
2022-11-21T14:42:15.604Z,98981.61
2022-11-21T14:47:26.158Z,98983.17
2022-11-21T14:52:33.191Z,98985.76
2022-11-21T14:57:42.846Z,98984.41
2022-11-21T15:02:47.091Z,98978.07
2022-11-21T15:07:50.862Z,98975.59
2022-11-21T15:12:59.128Z,98977.23
2022-11-21T15:23:31.876Z,98964.16
2022-11-21T15:28:35.174Z,98961.77
2022-11-21T15:39:24.808Z,98957.85
2022-11-21T15:44:28.446Z,98948.46
2022-11-21T15:49:33.452Z,98944.75
2022-11-21T15:54:37.204Z,98943.20
2022-11-21T15:57:15.607Z,98958.00
2022-11-21T15:59:40.604Z,98944.20
2022-11-21T16:04:44.223Z,98945.58
2022-11-21T16:09:47.994Z,98944.81
2022-11-21T16:14:51.561Z,98943.79
2022-11-21T16:19:54.870Z,98944.54
2022-11-21T16:24:58.283Z,98946.77
2022-11-21T16:30:01.595Z,98945.42
2022-11-21T16:35:06.033Z,98939.03
2022-11-21T16:40:10.676Z,98935.23
2022-11-21T16:45:14.295Z,98928.65
2022-11-21T16:50:18.115Z,98930.91
2022-11-21T16:55:21.427Z,98935.48
2022-11-21T17:00:25.965Z,98933.79
2022-11-21T17:05:29.173Z,98931.83
2022-11-21T17:10:34.098Z,98935.71
2022-11-21T17:15:37.638Z,98932.52
2022-11-21T17:20:40.949Z,98932.98
2022-11-21T17:25:44.360Z,98935.81
2022-11-21T17:30:47.779Z,98937.67
2022-11-21T17:35:51.906Z,98940.49
2022-11-21T17:41:02.590Z,98935.00
2022-11-21T17:46:10.252Z,98928.53
2022-11-21T17:51:17.257Z,98932.64
2022-11-21T17:56:25.534Z,98929.31
2022-11-21T18:01:29.898Z,98930.60
2022-11-21T18:06:34.500Z,98935.70
2022-11-21T18:11:40.327Z,98930.58
2022-11-21T18:16:50.716Z,98930.02
2022-11-21T18:21:56.414Z,98932.64
2022-11-21T18:26:59.827Z,98929.92
2022-11-21T18:32:03.240Z,98923.50
2022-11-21T18:37:06.757Z,98913.14
2022-11-21T18:42:10.168Z,98915.40
2022-11-21T18:47:20.372Z,98916.89
2022-11-21T18:52:25.193Z,98918.15
2022-11-21T18:57:28.601Z,98923.52
2022-11-21T19:02:32.224Z,98919.47
2022-11-21T19:07:35.695Z,98920.35
2022-11-21T19:12:39.878Z,98915.95
2022-11-21T19:17:43.380Z,98919.70
2022-11-21T19:22:46.691Z,98922.14
2022-11-21T19:27:50.103Z,98916.85
2022-11-21T19:32:54.320Z,98926.02
2022-11-21T19:37:57.543Z,98931.06
2022-11-21T19:43:00.957Z,98935.20
2022-11-21T19:48:04.677Z,98940.48
2022-11-21T19:53:08.089Z,98942.62
2022-11-21T19:58:11.506Z,98938.69
2022-11-21T20:03:14.814Z,98943.90
2022-11-21T20:08:18.456Z,98949.15
2022-11-21T20:13:21.950Z,98947.29
2022-11-21T20:18:25.463Z,98945.50
2022-11-21T20:23:29.084Z,98942.54
2022-11-21T20:28:36.899Z,98938.85
2022-11-21T20:33:42.656Z,98937.79
2022-11-21T20:38:56.626Z,98942.52
2022-11-21T20:44:53.314Z,98946.85
2022-11-21T20:49:25.780Z,98960.70
2022-11-21T20:54:29.276Z,98963.83
2022-11-21T20:59:52.915Z,98959.22
2022-11-21T21:04:56.396Z,98958.73
2022-11-21T21:10:00.129Z,98958.62
2022-11-21T21:15:03.736Z,98958.81
2022-11-21T21:20:08.450Z,98968.23
2022-11-21T21:25:11.789Z,98960.81
2022-11-21T21:30:16.019Z,98964.12
2022-11-21T21:35:19.743Z,98959.31
2022-11-21T21:40:23.154Z,98966.00
2022-11-21T21:45:26.672Z,98968.46
2022-11-21T21:50:30.289Z,98970.10
2022-11-21T21:55:33.702Z,98972.88
2022-11-21T22:00:37.321Z,98964.73
2022-11-21T22:05:40.631Z,98965.70
2022-11-21T22:10:44.147Z,98964.42
2022-11-21T22:15:47.866Z,98963.84
2022-11-21T22:20:51.793Z,98964.76
2022-11-21T22:25:58.689Z,98971.16
2022-11-21T22:31:02.100Z,98971.73
2022-11-21T22:36:16.979Z,98978.35
2022-11-21T22:41:25.869Z,98979.80
2022-11-21T22:46:30.532Z,98975.78
2022-11-21T22:51:35.003Z,98973.88
2022-11-21T22:56:38.416Z,98974.35
2022-11-21T23:01:42.097Z,98964.23
2022-11-21T23:06:45.762Z,98966.58
2022-11-21T23:11:49.273Z,98969.05
2022-11-21T23:16:52.793Z,98967.85
2022-11-21T23:21:56.311Z,98961.99
2022-11-21T23:27:00.130Z,98948.24
2022-11-21T23:32:03.852Z,98951.98
2022-11-21T23:37:07.365Z,98953.71
2022-11-21T23:42:10.886Z,98946.27
2022-11-21T23:47:14.396Z,98953.97
2022-11-21T23:52:18.019Z,98964.46
2022-11-21T23:57:21.531Z,98962.66
